Neder Vindinge, Denmark
Current Conditions -  °F | °C
As of 5:20 AM on Friday 21 Nov 2014 (Local Time) from EKAV Reporting Station
Overcast Overcast  
Wind Chill: 41°   Ceiling: 2100
Heat Index: 45°   Visibility: 6mi
Dew Point: 39°   Wind: 6mph
Humidity: 81%   Direction: NA
Pressure: 30.33"   Gusts: NA
Location:  55.03°N, 11.88°E
Report Text: EKAV 210420Z AUTO VRB05KT 9999NDV OVC021/// 07/04 Q1027
Loading
Personal Weather Stations






























Interactive Weather Map New forecast layout! Learn more

10-Day Weather Forecast

Advertisements
Track Severe Weather on mobile